sensor_id;sensor_type;location;lat;lon;timestamp;P1;durP1;ratioP1;P2;durP2;ratioP2
37559;SDS011;23398;50.928;7.084;2022-08-19T00:01:41;10.77;;;9.77;;
37559;SDS011;23398;50.928;7.084;2022-08-19T00:04:08;10.98;;;9.98;;
37559;SDS011;23398;50.928;7.084;2022-08-19T00:06:37;11.05;;;10.05;;
37559;SDS011;23398;50.928;7.084;2022-08-19T00:09:04;11.10;;;10.10;;
37559;SDS011;23398;50.928;7.084;2022-08-19T00:11:32;10.70;;;9.70;;
37559;SDS011;23398;50.928;7.084;2022-08-19T00:13:58;10.85;;;9.85;;
37559;SDS011;23398;50.928;7.084;2022-08-19T00:16:24;12.07;;;10.18;;
37559;SDS011;23398;50.928;7.084;2022-08-19T00:18:50;10.70;;;9.70;;
37559;SDS011;23398;50.928;7.084;2022-08-19T00:21:16;11.13;;;10.13;;
37559;SDS011;23398;50.928;7.084;2022-08-19T00:23:42;11.35;;;10.35;;
37559;SDS011;23398;50.928;7.084;2022-08-19T00:26:09;10.90;;;9.90;;
37559;SDS011;23398;50.928;7.084;2022-08-19T00:28:35;10.63;;;9.63;;
37559;SDS011;23398;50.928;7.084;2022-08-19T00:31:02;10.73;;;9.73;;
37559;SDS011;23398;50.928;7.084;2022-08-19T00:33:29;11.48;;;10.38;;
37559;SDS011;23398;50.928;7.084;2022-08-19T00:36:01;11.02;;;10.00;;
37559;SDS011;23398;50.928;7.084;2022-08-19T00:38:30;10.90;;;9.90;;
37559;SDS011;23398;50.928;7.084;2022-08-19T00:40:56;11.05;;;10.05;;
37559;SDS011;23398;50.928;7.084;2022-08-19T00:43:22;11.05;;;10.05;;
37559;SDS011;23398;50.928;7.084;2022-08-19T00:45:51;10.68;;;9.68;;
37559;SDS011;23398;50.928;7.084;2022-08-19T00:48:17;11.25;;;10.25;;
37559;SDS011;23398;50.928;7.084;2022-08-19T00:50:43;10.90;;;9.90;;
37559;SDS011;23398;50.928;7.084;2022-08-19T00:53:13;10.43;;;9.48;;
37559;SDS011;23398;50.928;7.084;2022-08-19T00:55:43;13.88;;;10.48;;
37559;SDS011;23398;50.928;7.084;2022-08-19T00:58:12;11.40;;;10.40;;
37559;SDS011;23398;50.928;7.084;2022-08-19T01:00:40;11.43;;;10.43;;
37559;SDS011;23398;50.928;7.084;2022-08-19T01:03:07;11.02;;;10.02;;
37559;SDS011;23398;50.928;7.084;2022-08-19T01:05:36;11.40;;;10.40;;
37559;SDS011;23398;50.928;7.084;2022-08-19T01:08:04;11.30;;;10.30;;
37559;SDS011;23398;50.928;7.084;2022-08-19T01:10:35;10.68;;;9.65;;
37559;SDS011;23398;50.928;7.084;2022-08-19T01:13:05;10.90;;;9.90;;
37559;SDS011;23398;50.928;7.084;2022-08-19T01:15:32;11.05;;;10.05;;
37559;SDS011;23398;50.928;7.084;2022-08-19T01:18:07;11.25;;;10.25;;
37559;SDS011;23398;50.928;7.084;2022-08-19T01:20:35;11.80;;;10.55;;
37559;SDS011;23398;50.928;7.084;2022-08-19T01:23:01;11.07;;;10.05;;
37559;SDS011;23398;50.928;7.084;2022-08-19T01:25:32;11.25;;;10.20;;
37559;SDS011;23398;50.928;7.084;2022-08-19T01:28:04;11.27;;;10.18;;
37559;SDS011;23398;50.928;7.084;2022-08-19T01:30:31;11.27;;;10.15;;
37559;SDS011;23398;50.928;7.084;2022-08-19T01:32:58;10.88;;;9.93;;
37559;SDS011;23398;50.928;7.084;2022-08-19T01:35:26;11.13;;;10.07;;
37559;SDS011;23398;50.928;7.084;2022-08-19T01:37:55;10.10;;;8.88;;
37559;SDS011;23398;50.928;7.084;2022-08-19T01:40:24;10.25;;;9.25;;
37559;SDS011;23398;50.928;7.084;2022-08-19T01:42:54;11.05;;;10.05;;
37559;SDS011;23398;50.928;7.084;2022-08-19T01:45:21;10.27;;;9.27;;
37559;SDS011;23398;50.928;7.084;2022-08-19T01:47:48;10.45;;;9.55;;
37559;SDS011;23398;50.928;7.084;2022-08-19T01:50:14;10.90;;;9.90;;
37559;SDS011;23398;50.928;7.084;2022-08-19T01:52:41;10.95;;;9.95;;
37559;SDS011;23398;50.928;7.084;2022-08-19T01:55:09;10.48;;;9.57;;
37559;SDS011;23398;50.928;7.084;2022-08-19T01:57:37;10.38;;;9.38;;
37559;SDS011;23398;50.928;7.084;2022-08-19T02:00:07;11.00;;;10.00;;
37559;SDS011;23398;50.928;7.084;2022-08-19T02:02:36;10.27;;;9.30;;
37559;SDS011;23398;50.928;7.084;2022-08-19T02:05:02;10.00;;;9.10;;
37559;SDS011;23398;50.928;7.084;2022-08-19T02:07:31;10.98;;;9.98;;
37559;SDS011;23398;50.928;7.084;2022-08-19T02:09:57;10.07;;;9.18;;
37559;SDS011;23398;50.928;7.084;2022-08-19T02:12:23;9.68;;;8.88;;
37559;SDS011;23398;50.928;7.084;2022-08-19T02:14:49;10.35;;;9.35;;
37559;SDS011;23398;50.928;7.084;2022-08-19T02:17:14;9.88;;;9.07;;
37559;SDS011;23398;50.928;7.084;2022-08-19T02:19:40;9.55;;;8.73;;
37559;SDS011;23398;50.928;7.084;2022-08-19T02:22:05;10.10;;;9.18;;
37559;SDS011;23398;50.928;7.084;2022-08-19T02:24:32;9.48;;;8.57;;
37559;SDS011;23398;50.928;7.084;2022-08-19T02:26:57;10.20;;;8.95;;
37559;SDS011;23398;50.928;7.084;2022-08-19T02:29:23;9.57;;;8.68;;
37559;SDS011;23398;50.928;7.084;2022-08-19T02:31:49;9.95;;;8.50;;
37559;SDS011;23398;50.928;7.084;2022-08-19T02:34:15;9.50;;;8.60;;
37559;SDS011;23398;50.928;7.084;2022-08-19T02:36:41;10.02;;;8.93;;
37559;SDS011;23398;50.928;7.084;2022-08-19T02:39:07;10.15;;;9.25;;
37559;SDS011;23398;50.928;7.084;2022-08-19T02:41:33;9.77;;;8.80;;
37559;SDS011;23398;50.928;7.084;2022-08-19T02:43:59;9.40;;;8.57;;
37559;SDS011;23398;50.928;7.084;2022-08-19T02:46:28;9.68;;;8.82;;
37559;SDS011;23398;50.928;7.084;2022-08-19T02:48:59;10.02;;;9.02;;
37559;SDS011;23398;50.928;7.084;2022-08-19T02:51:37;10.20;;;9.20;;
37559;SDS011;23398;50.928;7.084;2022-08-19T02:54:09;9.27;;;8.45;;
37559;SDS011;23398;50.928;7.084;2022-08-19T02:56:37;9.93;;;9.02;;
37559;SDS011;23398;50.928;7.084;2022-08-19T02:59:04;10.10;;;9.13;;
37559;SDS011;23398;50.928;7.084;2022-08-19T03:01:36;10.20;;;9.30;;
37559;SDS011;23398;50.928;7.084;2022-08-19T03:04:03;10.20;;;9.25;;
37559;SDS011;23398;50.928;7.084;2022-08-19T03:06:30;10.05;;;9.15;;
37559;SDS011;23398;50.928;7.084;2022-08-19T03:08:57;10.50;;;9.27;;
37559;SDS011;23398;50.928;7.084;2022-08-19T03:11:27;10.68;;;9.57;;
37559;SDS011;23398;50.928;7.084;2022-08-19T03:13:54;9.85;;;8.95;;
37559;SDS011;23398;50.928;7.084;2022-08-19T03:16:22;10.23;;;9.23;;
37559;SDS011;23398;50.928;7.084;2022-08-19T03:18:49;10.10;;;9.20;;
37559;SDS011;23398;50.928;7.084;2022-08-19T03:21:22;9.90;;;9.05;;
37559;SDS011;23398;50.928;7.084;2022-08-19T03:23:49;10.38;;;9.38;;
37559;SDS011;23398;50.928;7.084;2022-08-19T03:26:18;9.50;;;8.60;;
37559;SDS011;23398;50.928;7.084;2022-08-19T03:28:44;10.02;;;9.07;;
37559;SDS011;23398;50.928;7.084;2022-08-19T03:31:15;9.45;;;8.55;;
37559;SDS011;23398;50.928;7.084;2022-08-19T03:33:44;10.10;;;9.10;;
37559;SDS011;23398;50.928;7.084;2022-08-19T03:36:14;9.68;;;8.77;;
37559;SDS011;23398;50.928;7.084;2022-08-19T03:38:43;10.35;;;9.32;;
37559;SDS011;23398;50.928;7.084;2022-08-19T03:41:15;8.98;;;8.18;;
37559;SDS011;23398;50.928;7.084;2022-08-19T03:44:02;9.00;;;8.20;;
37559;SDS011;23398;50.928;7.084;2022-08-19T03:46:30;9.30;;;8.45;;
37559;SDS011;23398;50.928;7.084;2022-08-19T03:48:58;9.10;;;8.30;;
37559;SDS011;23398;50.928;7.084;2022-08-19T03:51:32;9.75;;;8.80;;
37559;SDS011;23398;50.928;7.084;2022-08-19T03:54:04;9.73;;;8.70;;
37559;SDS011;23398;50.928;7.084;2022-08-19T03:56:36;9.50;;;8.60;;
37559;SDS011;23398;50.928;7.084;2022-08-19T03:59:03;9.43;;;8.63;;
37559;SDS011;23398;50.928;7.084;2022-08-19T04:01:31;9.95;;;9.05;;
37559;SDS011;23398;50.928;7.084;2022-08-19T04:03:57;9.85;;;8.95;;
37559;SDS011;23398;50.928;7.084;2022-08-19T04:06:28;9.98;;;8.63;;
37559;SDS011;23398;50.928;7.084;2022-08-19T04:08:56;10.57;;;9.57;;
37559;SDS011;23398;50.928;7.084;2022-08-19T04:11:56;10.18;;;9.27;;
37559;SDS011;23398;50.928;7.084;2022-08-19T04:14:19;9.88;;;8.98;;
37559;SDS011;23398;50.928;7.084;2022-08-19T04:16:47;10.00;;;9.00;;
37559;SDS011;23398;50.928;7.084;2022-08-19T04:19:14;10.05;;;9.15;;
37559;SDS011;23398;50.928;7.084;2022-08-19T04:21:43;9.68;;;8.82;;
37559;SDS011;23398;50.928;7.084;2022-08-19T04:24:14;9.32;;;8.43;;
37559;SDS011;23398;50.928;7.084;2022-08-19T04:26:40;9.32;;;8.52;;
37559;SDS011;23398;50.928;7.084;2022-08-19T04:29:11;9.95;;;8.98;;
37559;SDS011;23398;50.928;7.084;2022-08-19T04:31:42;10.35;;;9.38;;
37559;SDS011;23398;50.928;7.084;2022-08-19T04:34:10;10.05;;;9.15;;
37559;SDS011;23398;50.928;7.084;2022-08-19T04:36:38;9.23;;;8.38;;
37559;SDS011;23398;50.928;7.084;2022-08-19T04:39:08;10.82;;;9.82;;
37559;SDS011;23398;50.928;7.084;2022-08-19T04:41:35;9.75;;;8.85;;
37559;SDS011;23398;50.928;7.084;2022-08-19T04:44:19;9.65;;;8.70;;
37559;SDS011;23398;50.928;7.084;2022-08-19T04:46:46;10.70;;;9.65;;
37559;SDS011;23398;50.928;7.084;2022-08-19T04:49:13;10.57;;;9.55;;
37559;SDS011;23398;50.928;7.084;2022-08-19T04:51:40;10.45;;;9.55;;
37559;SDS011;23398;50.928;7.084;2022-08-19T04:54:08;11.13;;;10.13;;
37559;SDS011;23398;50.928;7.084;2022-08-19T04:56:34;10.80;;;9.80;;
37559;SDS011;23398;50.928;7.084;2022-08-19T04:59:00;10.13;;;9.23;;
37559;SDS011;23398;50.928;7.084;2022-08-19T05:01:29;9.43;;;8.63;;
37559;SDS011;23398;50.928;7.084;2022-08-19T05:03:57;10.30;;;9.40;;
37559;SDS011;23398;50.928;7.084;2022-08-19T05:06:29;9.75;;;8.85;;
37559;SDS011;23398;50.928;7.084;2022-08-19T05:08:57;10.15;;;9.20;;
37559;SDS011;23398;50.928;7.084;2022-08-19T05:11:25;11.23;;;10.18;;
37559;SDS011;23398;50.928;7.084;2022-08-19T05:13:53;11.57;;;10.48;;
37559;SDS011;23398;50.928;7.084;2022-08-19T05:16:20;10.27;;;9.27;;
37559;SDS011;23398;50.928;7.084;2022-08-19T05:18:47;10.48;;;9.48;;
37559;SDS011;23398;50.928;7.084;2022-08-19T05:21:32;9.88;;;9.00;;
37559;SDS011;23398;50.928;7.084;2022-08-19T05:24:17;11.52;;;9.65;;
37559;SDS011;23398;50.928;7.084;2022-08-19T05:26:45;10.90;;;9.77;;
37559;SDS011;23398;50.928;7.084;2022-08-19T05:29:17;11.10;;;10.00;;
37559;SDS011;23398;50.928;7.084;2022-08-19T05:31:44;11.70;;;10.45;;
37559;SDS011;23398;50.928;7.084;2022-08-19T05:34:11;10.57;;;9.63;;
37559;SDS011;23398;50.928;7.084;2022-08-19T05:36:38;11.20;;;10.10;;
37559;SDS011;23398;50.928;7.084;2022-08-19T05:39:06;10.68;;;9.73;;
37559;SDS011;23398;50.928;7.084;2022-08-19T05:41:33;10.10;;;9.10;;
37559;SDS011;23398;50.928;7.084;2022-08-19T05:44:03;10.35;;;9.40;;
37559;SDS011;23398;50.928;7.084;2022-08-19T05:46:31;9.93;;;9.13;;
37559;SDS011;23398;50.928;7.084;2022-08-19T05:48:57;10.00;;;9.10;;
37559;SDS011;23398;50.928;7.084;2022-08-19T05:51:23;10.13;;;9.23;;
37559;SDS011;23398;50.928;7.084;2022-08-19T05:53:50;10.25;;;9.35;;
37559;SDS011;23398;50.928;7.084;2022-08-19T05:56:16;10.40;;;9.50;;
37559;SDS011;23398;50.928;7.084;2022-08-19T05:58:43;9.70;;;8.80;;
37559;SDS011;23398;50.928;7.084;2022-08-19T06:01:11;10.75;;;9.75;;
37559;SDS011;23398;50.928;7.084;2022-08-19T06:03:39;10.73;;;9.80;;
37559;SDS011;23398;50.928;7.084;2022-08-19T06:06:06;11.38;;;10.27;;
37559;SDS011;23398;50.928;7.084;2022-08-19T06:08:34;11.07;;;10.05;;
37559;SDS011;23398;50.928;7.084;2022-08-19T06:11:19;10.32;;;9.43;;
37559;SDS011;23398;50.928;7.084;2022-08-19T06:13:45;10.73;;;9.73;;
37559;SDS011;23398;50.928;7.084;2022-08-19T06:16:15;11.52;;;10.43;;
37559;SDS011;23398;50.928;7.084;2022-08-19T06:18:52;12.38;;;10.63;;
37559;SDS011;23398;50.928;7.084;2022-08-19T06:21:21;12.63;;;11.43;;
37559;SDS011;23398;50.928;7.084;2022-08-19T06:23:49;12.35;;;11.25;;
37559;SDS011;23398;50.928;7.084;2022-08-19T06:26:17;12.07;;;10.98;;
37559;SDS011;23398;50.928;7.084;2022-08-19T06:28:44;14.25;;;11.45;;
37559;SDS011;23398;50.928;7.084;2022-08-19T06:31:17;12.82;;;11.63;;
37559;SDS011;23398;50.928;7.084;2022-08-19T06:33:45;13.88;;;12.48;;
37559;SDS011;23398;50.928;7.084;2022-08-19T06:36:23;14.05;;;12.75;;
37559;SDS011;23398;50.928;7.084;2022-08-19T06:38:55;13.73;;;12.38;;
37559;SDS011;23398;50.928;7.084;2022-08-19T06:41:22;14.02;;;12.00;;
37559;SDS011;23398;50.928;7.084;2022-08-19T06:43:49;15.15;;;13.60;;
37559;SDS011;23398;50.928;7.084;2022-08-19T06:46:15;14.32;;;12.93;;
37559;SDS011;23398;50.928;7.084;2022-08-19T06:48:43;13.50;;;11.77;;
37559;SDS011;23398;50.928;7.084;2022-08-19T06:51:09;13.30;;;12.00;;
37559;SDS011;23398;50.928;7.084;2022-08-19T06:53:35;16.67;;;14.38;;
37559;SDS011;23398;50.928;7.084;2022-08-19T06:56:01;14.23;;;12.68;;
37559;SDS011;23398;50.928;7.084;2022-08-19T06:58:27;14.05;;;12.75;;
37559;SDS011;23398;50.928;7.084;2022-08-19T07:00:57;16.65;;;14.95;;
37559;SDS011;23398;50.928;7.084;2022-08-19T07:03:32;15.70;;;14.15;;
37559;SDS011;23398;50.928;7.084;2022-08-19T07:06:13;15.10;;;13.55;;
37559;SDS011;23398;50.928;7.084;2022-08-19T07:08:42;15.13;;;13.55;;
37559;SDS011;23398;50.928;7.084;2022-08-19T07:11:10;13.98;;;12.52;;
37559;SDS011;23398;50.928;7.084;2022-08-19T07:13:38;15.25;;;13.65;;
37559;SDS011;23398;50.928;7.084;2022-08-19T07:16:08;14.40;;;12.98;;
37559;SDS011;23398;50.928;7.084;2022-08-19T07:18:35;13.95;;;12.50;;
37559;SDS011;23398;50.928;7.084;2022-08-19T07:21:05;13.43;;;12.13;;
37559;SDS011;23398;50.928;7.084;2022-08-19T07:23:33;13.73;;;12.38;;
37559;SDS011;23398;50.928;7.084;2022-08-19T07:26:04;13.00;;;11.75;;
37559;SDS011;23398;50.928;7.084;2022-08-19T07:28:33;13.75;;;12.35;;
37559;SDS011;23398;50.928;7.084;2022-08-19T07:30:59;12.73;;;11.52;;
37559;SDS011;23398;50.928;7.084;2022-08-19T07:33:26;13.15;;;11.85;;
37559;SDS011;23398;50.928;7.084;2022-08-19T07:35:55;13.35;;;11.77;;
37559;SDS011;23398;50.928;7.084;2022-08-19T07:38:20;12.27;;;11.07;;
37559;SDS011;23398;50.928;7.084;2022-08-19T07:40:46;12.50;;;11.20;;
37559;SDS011;23398;50.928;7.084;2022-08-19T07:43:11;11.85;;;10.40;;
37559;SDS011;23398;50.928;7.084;2022-08-19T07:45:37;13.57;;;12.10;;
37559;SDS011;23398;50.928;7.084;2022-08-19T07:48:03;12.25;;;11.02;;
37559;SDS011;23398;50.928;7.084;2022-08-19T07:50:29;11.48;;;10.38;;
37559;SDS011;23398;50.928;7.084;2022-08-19T07:52:55;11.65;;;10.20;;
37559;SDS011;23398;50.928;7.084;2022-08-19T07:55:25;12.35;;;11.05;;
37559;SDS011;23398;50.928;7.084;2022-08-19T07:57:51;11.85;;;10.75;;
37559;SDS011;23398;50.928;7.084;2022-08-19T08:00:18;11.38;;;10.18;;
37559;SDS011;23398;50.928;7.084;2022-08-19T08:02:44;11.40;;;10.30;;
37559;SDS011;23398;50.928;7.084;2022-08-19T08:05:10;11.27;;;9.73;;
37559;SDS011;23398;50.928;7.084;2022-08-19T08:07:54;10.50;;;9.48;;
37559;SDS011;23398;50.928;7.084;2022-08-19T08:10:38;10.73;;;9.70;;
37559;SDS011;23398;50.928;7.084;2022-08-19T08:13:04;10.63;;;9.52;;
37559;SDS011;23398;50.928;7.084;2022-08-19T08:15:30;9.90;;;8.90;;
37559;SDS011;23398;50.928;7.084;2022-08-19T08:17:56;9.32;;;8.32;;
37559;SDS011;23398;50.928;7.084;2022-08-19T08:20:22;9.90;;;8.82;;
37559;SDS011;23398;50.928;7.084;2022-08-19T08:22:49;9.20;;;8.23;;
37559;SDS011;23398;50.928;7.084;2022-08-19T08:25:34;10.43;;;8.05;;
37559;SDS011;23398;50.928;7.084;2022-08-19T08:28:01;10.57;;;8.75;;
37559;SDS011;23398;50.928;7.084;2022-08-19T08:30:29;8.98;;;8.07;;
37559;SDS011;23398;50.928;7.084;2022-08-19T08:32:57;9.05;;;8.23;;
37559;SDS011;23398;50.928;7.084;2022-08-19T08:35:23;9.90;;;8.38;;
37559;SDS011;23398;50.928;7.084;2022-08-19T08:37:50;9.50;;;8.60;;
37559;SDS011;23398;50.928;7.084;2022-08-19T08:46:59;11.27;;;10.23;;
37559;SDS011;23398;50.928;7.084;2022-08-19T08:51:46;10.23;;;9.20;;
37559;SDS011;23398;50.928;7.084;2022-08-19T08:54:18;11.57;;;9.55;;
37559;SDS011;23398;50.928;7.084;2022-08-19T08:56:48;11.23;;;10.07;;
37559;SDS011;23398;50.928;7.084;2022-08-19T08:59:19;9.70;;;8.80;;
37559;SDS011;23398;50.928;7.084;2022-08-19T09:01:56;9.48;;;8.52;;
37559;SDS011;23398;50.928;7.084;2022-08-19T09:04:21;10.13;;;9.00;;
37559;SDS011;23398;50.928;7.084;2022-08-19T09:09:39;10.40;;;9.43;;
37559;SDS011;23398;50.928;7.084;2022-08-19T09:15:04;11.23;;;10.13;;
37559;SDS011;23398;50.928;7.084;2022-08-19T09:17:35;12.40;;;11.15;;
37559;SDS011;23398;50.928;7.084;2022-08-19T09:22:33;11.60;;;10.45;;
37559;SDS011;23398;50.928;7.084;2022-08-19T09:24:59;12.45;;;11.27;;
37559;SDS011;23398;50.928;7.084;2022-08-19T09:27:25;13.40;;;12.00;;
37559;SDS011;23398;50.928;7.084;2022-08-19T09:29:52;12.98;;;11.80;;
37559;SDS011;23398;50.928;7.084;2022-08-19T09:32:19;12.40;;;11.32;;
37559;SDS011;23398;50.928;7.084;2022-08-19T09:34:45;14.02;;;12.70;;
37559;SDS011;23398;50.928;7.084;2022-08-19T09:37:12;14.10;;;12.60;;
37559;SDS011;23398;50.928;7.084;2022-08-19T09:39:38;14.38;;;13.07;;
37559;SDS011;23398;50.928;7.084;2022-08-19T09:42:06;12.48;;;11.38;;
37559;SDS011;23398;50.928;7.084;2022-08-19T09:44:36;12.18;;;11.07;;
37559;SDS011;23398;50.928;7.084;2022-08-19T09:47:06;12.27;;;11.18;;
37559;SDS011;23398;50.928;7.084;2022-08-19T09:49:33;12.35;;;11.20;;
37559;SDS011;23398;50.928;7.084;2022-08-19T09:51:59;12.27;;;11.10;;
37559;SDS011;23398;50.928;7.084;2022-08-19T09:54:25;12.95;;;11.82;;
37559;SDS011;23398;50.928;7.084;2022-08-19T09:56:51;10.68;;;9.75;;
37559;SDS011;23398;50.928;7.084;2022-08-19T09:59:17;11.82;;;10.73;;
37559;SDS011;23398;50.928;7.084;2022-08-19T10:01:43;12.13;;;11.00;;
37559;SDS011;23398;50.928;7.084;2022-08-19T10:04:09;11.55;;;10.45;;
37559;SDS011;23398;50.928;7.084;2022-08-19T10:06:35;10.02;;;9.02;;
37559;SDS011;23398;50.928;7.084;2022-08-19T10:09:04;9.75;;;8.75;;
37559;SDS011;23398;50.928;7.084;2022-08-19T10:11:32;9.40;;;8.57;;
37559;SDS011;23398;50.928;7.084;2022-08-19T10:13:59;11.35;;;10.35;;
37559;SDS011;23398;50.928;7.084;2022-08-19T10:16:25;9.38;;;8.63;;
37559;SDS011;23398;50.928;7.084;2022-08-19T10:18:51;9.77;;;8.85;;
37559;SDS011;23398;50.928;7.084;2022-08-19T10:21:22;8.55;;;7.85;;
37559;SDS011;23398;50.928;7.084;2022-08-19T10:23:54;8.15;;;7.45;;
37559;SDS011;23398;50.928;7.084;2022-08-19T10:26:23;8.30;;;7.53;;
37559;SDS011;23398;50.928;7.084;2022-08-19T10:28:50;7.15;;;6.28;;
37559;SDS011;23398;50.928;7.084;2022-08-19T10:31:37;7.82;;;7.13;;
37559;SDS011;23398;50.928;7.084;2022-08-19T10:34:02;7.38;;;6.70;;
37559;SDS011;23398;50.928;7.084;2022-08-19T10:36:32;8.00;;;7.20;;
37559;SDS011;23398;50.928;7.084;2022-08-19T10:39:01;7.32;;;6.72;;
37559;SDS011;23398;50.928;7.084;2022-08-19T10:41:33;7.53;;;6.85;;
37559;SDS011;23398;50.928;7.084;2022-08-19T10:44:01;6.95;;;6.35;;
37559;SDS011;23398;50.928;7.084;2022-08-19T10:46:33;6.68;;;6.05;;
37559;SDS011;23398;50.928;7.084;2022-08-19T10:49:02;6.25;;;5.68;;
37559;SDS011;23398;50.928;7.084;2022-08-19T10:51:30;6.95;;;6.38;;
37559;SDS011;23398;50.928;7.084;2022-08-19T10:54:15;7.82;;;6.60;;
37559;SDS011;23398;50.928;7.084;2022-08-19T10:56:42;9.98;;;6.47;;
37559;SDS011;23398;50.928;7.084;2022-08-19T10:59:17;7.75;;;6.95;;
37559;SDS011;23398;50.928;7.084;2022-08-19T11:01:52;6.65;;;6.05;;
37559;SDS011;23398;50.928;7.084;2022-08-19T11:04:19;9.57;;;6.65;;
37559;SDS011;23398;50.928;7.084;2022-08-19T11:06:47;10.40;;;6.25;;
37559;SDS011;23398;50.928;7.084;2022-08-19T11:09:14;7.82;;;7.13;;
37559;SDS011;23398;50.928;7.084;2022-08-19T11:11:45;7.10;;;6.40;;
37559;SDS011;23398;50.928;7.084;2022-08-19T11:14:13;9.30;;;8.43;;
37559;SDS011;23398;50.928;7.084;2022-08-19T11:16:41;7.90;;;7.25;;
37559;SDS011;23398;50.928;7.084;2022-08-19T11:19:08;8.02;;;7.32;;
37559;SDS011;23398;50.928;7.084;2022-08-19T11:21:36;8.48;;;7.68;;
37559;SDS011;23398;50.928;7.084;2022-08-19T11:24:11;8.77;;;7.95;;
37559;SDS011;23398;50.928;7.084;2022-08-19T11:26:40;8.65;;;7.90;;
37559;SDS011;23398;50.928;7.084;2022-08-19T11:29:07;7.63;;;7.03;;
37559;SDS011;23398;50.928;7.084;2022-08-19T11:31:37;7.18;;;6.47;;
37559;SDS011;23398;50.928;7.084;2022-08-19T11:34:06;8.43;;;7.53;;
37559;SDS011;23398;50.928;7.084;2022-08-19T11:36:34;7.88;;;7.07;;
37559;SDS011;23398;50.928;7.084;2022-08-19T11:39:03;10.68;;;8.85;;
37559;SDS011;23398;50.928;7.084;2022-08-19T11:41:30;9.75;;;8.80;;
37559;SDS011;23398;50.928;7.084;2022-08-19T11:43:56;8.55;;;6.97;;
37559;SDS011;23398;50.928;7.084;2022-08-19T11:46:23;8.70;;;7.28;;
37559;SDS011;23398;50.928;7.084;2022-08-19T11:48:49;7.75;;;7.05;;
37559;SDS011;23398;50.928;7.084;2022-08-19T11:51:17;7.45;;;6.82;;
37559;SDS011;23398;50.928;7.084;2022-08-19T11:53:45;7.97;;;7.25;;
37559;SDS011;23398;50.928;7.084;2022-08-19T11:56:11;7.53;;;6.85;;
37559;SDS011;23398;50.928;7.084;2022-08-19T11:58:37;8.30;;;7.00;;
37559;SDS011;23398;50.928;7.084;2022-08-19T12:01:07;7.00;;;6.40;;
37559;SDS011;23398;50.928;7.084;2022-08-19T12:03:33;10.63;;;7.25;;
37559;SDS011;23398;50.928;7.084;2022-08-19T12:06:10;8.23;;;7.28;;
37559;SDS011;23398;50.928;7.084;2022-08-19T12:08:38;8.27;;;6.40;;
37559;SDS011;23398;50.928;7.084;2022-08-19T12:11:04;7.38;;;6.63;;
37559;SDS011;23398;50.928;7.084;2022-08-19T12:13:33;6.88;;;6.28;;
37559;SDS011;23398;50.928;7.084;2022-08-19T12:16:00;16.45;;;7.50;;
37559;SDS011;23398;50.928;7.084;2022-08-19T12:18:31;8.13;;;7.43;;
37559;SDS011;23398;50.928;7.084;2022-08-19T12:20:57;9.20;;;6.60;;
37559;SDS011;23398;50.928;7.084;2022-08-19T12:23:25;5.97;;;5.47;;
37559;SDS011;23398;50.928;7.084;2022-08-19T12:25:51;8.15;;;5.78;;
37559;SDS011;23398;50.928;7.084;2022-08-19T12:28:20;7.30;;;6.43;;
37559;SDS011;23398;50.928;7.084;2022-08-19T12:30:48;6.32;;;5.53;;
37559;SDS011;23398;50.928;7.084;2022-08-19T12:33:15;6.57;;;5.72;;
37559;SDS011;23398;50.928;7.084;2022-08-19T12:35:42;6.50;;;5.70;;
37559;SDS011;23398;50.928;7.084;2022-08-19T12:38:09;7.45;;;5.60;;
37559;SDS011;23398;50.928;7.084;2022-08-19T12:40:35;5.72;;;5.22;;
37559;SDS011;23398;50.928;7.084;2022-08-19T12:43:02;6.20;;;5.60;;
37559;SDS011;23398;50.928;7.084;2022-08-19T12:45:28;7.05;;;5.85;;
37559;SDS011;23398;50.928;7.084;2022-08-19T12:47:53;7.28;;;6.57;;
37559;SDS011;23398;50.928;7.084;2022-08-19T12:50:19;8.43;;;5.63;;
37559;SDS011;23398;50.928;7.084;2022-08-19T12:52:46;7.82;;;6.03;;
37559;SDS011;23398;50.928;7.084;2022-08-19T12:55:12;11.15;;;5.55;;
37559;SDS011;23398;50.928;7.084;2022-08-19T12:57:37;7.65;;;5.22;;
37559;SDS011;23398;50.928;7.084;2022-08-19T13:00:08;7.00;;;5.15;;
37559;SDS011;23398;50.928;7.084;2022-08-19T13:02:40;6.00;;;5.30;;
37559;SDS011;23398;50.928;7.084;2022-08-19T13:05:09;5.82;;;4.80;;
37559;SDS011;23398;50.928;7.084;2022-08-19T13:07:39;7.63;;;5.18;;
37559;SDS011;23398;50.928;7.084;2022-08-19T13:10:06;5.53;;;5.03;;
37559;SDS011;23398;50.928;7.084;2022-08-19T13:12:33;5.35;;;4.85;;
37559;SDS011;23398;50.928;7.084;2022-08-19T13:14:59;8.43;;;4.90;;
37559;SDS011;23398;50.928;7.084;2022-08-19T13:17:25;5.90;;;5.38;;
37559;SDS011;23398;50.928;7.084;2022-08-19T13:19:51;6.35;;;5.75;;
37559;SDS011;23398;50.928;7.084;2022-08-19T13:22:16;5.43;;;4.80;;
37559;SDS011;23398;50.928;7.084;2022-08-19T13:24:42;8.30;;;5.38;;
37559;SDS011;23398;50.928;7.084;2022-08-19T13:27:08;5.53;;;4.90;;
37559;SDS011;23398;50.928;7.084;2022-08-19T13:29:33;6.43;;;5.30;;
37559;SDS011;23398;50.928;7.084;2022-08-19T13:32:18;6.68;;;5.63;;
37559;SDS011;23398;50.928;7.084;2022-08-19T13:35:16;6.40;;;5.22;;
37559;SDS011;23398;50.928;7.084;2022-08-19T13:37:43;6.55;;;5.32;;
37559;SDS011;23398;50.928;7.084;2022-08-19T13:40:12;7.10;;;5.80;;
37559;SDS011;23398;50.928;7.084;2022-08-19T13:42:42;6.38;;;5.78;;
37559;SDS011;23398;50.928;7.084;2022-08-19T13:45:12;6.45;;;5.35;;
37559;SDS011;23398;50.928;7.084;2022-08-19T13:47:40;5.82;;;5.25;;
37559;SDS011;23398;50.928;7.084;2022-08-19T13:50:09;6.95;;;6.25;;
37559;SDS011;23398;50.928;7.084;2022-08-19T13:52:37;6.50;;;5.75;;
37559;SDS011;23398;50.928;7.084;2022-08-19T13:55:03;6.47;;;5.28;;
37559;SDS011;23398;50.928;7.084;2022-08-19T13:57:30;7.65;;;5.03;;
37559;SDS011;23398;50.928;7.084;2022-08-19T13:59:57;10.80;;;5.30;;
37559;SDS011;23398;50.928;7.084;2022-08-19T14:02:24;6.78;;;4.97;;
37559;SDS011;23398;50.928;7.084;2022-08-19T14:04:51;5.10;;;4.60;;
37559;SDS011;23398;50.928;7.084;2022-08-19T14:07:17;6.72;;;4.68;;
37559;SDS011;23398;50.928;7.084;2022-08-19T14:09:42;4.60;;;4.07;;
37559;SDS011;23398;50.928;7.084;2022-08-19T14:12:08;5.22;;;4.47;;
37559;SDS011;23398;50.928;7.084;2022-08-19T14:14:37;4.15;;;3.70;;
37559;SDS011;23398;50.928;7.084;2022-08-19T14:17:06;4.75;;;3.90;;
37559;SDS011;23398;50.928;7.084;2022-08-19T14:19:33;4.75;;;4.28;;
37559;SDS011;23398;50.928;7.084;2022-08-19T14:21:59;5.25;;;3.83;;
37559;SDS011;23398;50.928;7.084;2022-08-19T14:24:24;4.53;;;4.13;;
37559;SDS011;23398;50.928;7.084;2022-08-19T14:26:50;5.93;;;4.47;;
37559;SDS011;23398;50.928;7.084;2022-08-19T14:29:15;6.38;;;4.55;;
37559;SDS011;23398;50.928;7.084;2022-08-19T14:31:41;4.35;;;3.95;;
37559;SDS011;23398;50.928;7.084;2022-08-19T14:34:08;5.82;;;4.75;;
37559;SDS011;23398;50.928;7.084;2022-08-19T14:36:35;5.03;;;4.53;;
37559;SDS011;23398;50.928;7.084;2022-08-19T14:39:02;5.15;;;4.65;;
37559;SDS011;23398;50.928;7.084;2022-08-19T14:41:28;4.40;;;4.00;;
37559;SDS011;23398;50.928;7.084;2022-08-19T14:43:55;5.40;;;4.18;;
37559;SDS011;23398;50.928;7.084;2022-08-19T14:46:22;4.53;;;3.90;;
37559;SDS011;23398;50.928;7.084;2022-08-19T14:48:50;5.20;;;3.83;;
37559;SDS011;23398;50.928;7.084;2022-08-19T14:51:17;15.63;;;3.95;;
37559;SDS011;23398;50.928;7.084;2022-08-19T14:53:44;6.72;;;4.10;;
37559;SDS011;23398;50.928;7.084;2022-08-19T14:56:10;4.32;;;3.90;;
37559;SDS011;23398;50.928;7.084;2022-08-19T14:58:38;4.03;;;3.45;;
37559;SDS011;23398;50.928;7.084;2022-08-19T15:01:05;4.07;;;3.55;;